Time;durP1;ratioP1;P1;durP2;ratioP2;P2;SDS_P1;SDS_P2;PMS_P1;PMS_P2;Temp;Humidity;BMP_temperature;BMP_pressure;BME280_temperature;BME280_humidity;BME280_pressure;Samples;Min_cycle;Max_cycle;Signal;HPM_P1;HPM_P2
2024/04/12 00:01:03;;;;;;;15.32;11.43;;;;;;;;;;5390679;26;20054;-80
2024/04/12 00:03:31;;;;;;;18.98;12.45;;;;;;;;;;5390223;26;20004;-80
2024/04/12 00:06:00;;;;;;;19.45;12.93;;;;;;;;;;5390419;26;19999;-80
2024/04/12 00:08:30;;;;;;;16.27;12.07;;;;;;;;;;5390031;26;19988;-80
2024/04/12 00:10:57;;;;;;;18.27;12.48;;;;;;;;;;5390009;26;19991;-80
2024/04/12 00:13:26;;;;;;;16.48;13.07;;;;;;;;;;5390646;26;20032;-80
2024/04/12 00:15:55;;;;;;;20.23;12.65;;;;;;;;;;5389655;26;20003;-80
2024/04/12 00:18:21;;;;;;;15.88;12.80;;;;;;;;;;5390709;26;20020;-80
2024/04/12 00:20:48;;;;;;;17.35;13.38;;;;;;;;;;5388756;26;20424;-80
2024/04/12 00:23:16;;;;;;;21.20;13.10;;;;;;;;;;5390314;26;20003;-81
2024/04/12 00:25:43;;;;;;;21.65;14.07;;;;;;;;;;5389866;26;19999;-81
2024/04/12 00:28:09;;;;;;;17.23;13.98;;;;;;;;;;5390288;26;19992;-81
2024/04/12 00:30:39;;;;;;;21.33;14.23;;;;;;;;;;5389471;26;20028;-81
2024/04/12 00:33:11;;;;;;;22.35;15.20;;;;;;;;;;5390277;26;19999;-81
2024/04/12 00:35:38;;;;;;;37.70;14.90;;;;;;;;;;5390619;26;20024;-81
2024/04/12 00:38:09;;;;;;;21.08;12.90;;;;;;;;;;5390222;26;20024;-81
2024/04/12 00:40:41;;;;;;;21.40;14.55;;;;;;;;;;5387865;26;19996;-81
2024/04/12 00:43:11;;;;;;;;;;;;;;;;;;5390595;26;19991;-81
2024/04/12 00:45:42;;;;;;;16.33;12.05;;;;;;;;;;5389511;26;19921;-80
2024/04/12 00:48:08;;;;;;;19.60;13.38;;;;;;;;;;5389744;26;20370;-81
2024/04/12 00:50:36;;;;;;;14.70;12.40;;;;;;;;;;5388760;26;20247;-81
2024/04/12 00:53:03;;;;;;;19.88;13.07;;;;;;;;;;5389655;26;20050;-81
2024/04/12 00:55:33;;;;;;;16.73;12.50;;;;;;;;;;5388412;26;20008;-80
2024/04/12 00:58:02;;;;;;;15.27;12.05;;;;;;;;;;5389861;26;20031;-80
2024/04/12 01:00:46;;;;;;;18.20;12.20;;;;;;;;;;5389183;26;20053;-81
2024/04/12 01:03:15;;;;;;;15.00;12.45;;;;;;;;;;5389474;26;20003;-81
2024/04/12 01:05:41;;;;;;;17.73;12.15;;;;;;;;;;5389365;26;19996;-81
2024/04/12 01:08:07;;;;;;;19.60;12.80;;;;;;;;;;5389383;26;20000;-80
2024/04/12 01:10:36;;;;;;;15.82;12.20;;;;;;;;;;5388799;26;20008;-81
2024/04/12 01:13:04;;;;;;;17.00;11.80;;;;;;;;;;5389236;26;19988;-81
2024/04/12 01:15:36;;;;;;;18.15;13.18;;;;;;;;;;5388078;26;20416;-81
2024/04/12 01:18:04;;;;;;;15.93;12.00;;;;;;;;;;5387631;26;20004;-81
2024/04/12 01:20:32;;;;;;;15.35;11.75;;;;;;;;;;5386718;26;20007;-81
2024/04/12 01:22:59;;;;;;;16.90;12.43;;;;;;;;;;5389426;26;19992;-81
2024/04/12 01:25:31;;;;;;;15.95;11.90;;;;;;;;;;5389511;26;20269;-81
2024/04/12 01:27:57;;;;;;;15.52;11.50;;;;;;;;;;5389010;26;19996;-81
2024/04/12 01:30:24;;;;;;;22.55;12.80;;;;;;;;;;5387648;26;20008;-80
2024/04/12 01:32:50;;;;;;;14.50;12.07;;;;;;;;;;5389305;26;19992;-81
2024/04/12 01:35:22;;;;;;;14.38;11.70;;;;;;;;;;5389165;26;20004;-81
2024/04/12 01:37:52;;;;;;;17.90;12.52;;;;;;;;;;5389621;26;20000;-81
2024/04/12 01:40:18;;;;;;;16.52;11.07;;;;;;;;;;5389121;26;20059;-81
2024/04/12 01:42:44;;;;;;;18.95;11.77;;;;;;;;;;5387170;26;20424;-80
2024/04/12 01:45:14;;;;;;;16.55;11.90;;;;;;;;;;5389122;26;20007;-81
2024/04/12 01:47:42;;;;;;;15.88;11.55;;;;;;;;;;5387759;26;19988;-81
2024/04/12 01:50:12;;;;;;;20.98;12.38;;;;;;;;;;5388522;26;20004;-80
2024/04/12 01:52:58;;;;;;;16.23;12.25;;;;;;;;;;5387620;26;19988;-81
2024/04/12 01:55:25;;;;;;;15.85;12.20;;;;;;;;;;5388696;26;20023;-80
2024/04/12 01:57:52;;;;;;;15.73;11.95;;;;;;;;;;5388909;26;20000;-81
2024/04/12 02:00:20;;;;;;;16.85;11.85;;;;;;;;;;5387592;26;20014;-80
2024/04/12 02:02:53;;;;;;;15.98;11.02;;;;;;;;;;5387986;26;20032;-80
2024/04/12 02:05:34;;;;;;;12.77;11.00;;;;;;;;;;5388389;26;20004;-80
2024/04/12 02:08:07;;;;;;;16.08;11.00;;;;;;;;;;5386933;26;20082;-81
2024/04/12 02:10:41;;;;;;;20.73;12.73;;;;;;;;;;5387052;26;20004;-81
2024/04/12 02:13:10;;;;;;;18.30;12.57;;;;;;;;;;5388518;26;20002;-81
2024/04/12 02:15:36;;;;;;;21.38;13.57;;;;;;;;;;5387285;26;20049;-80
2024/04/12 02:18:02;;;;;;;22.13;13.30;;;;;;;;;;5388542;26;20011;-80
2024/04/12 02:20:35;;;;;;;20.63;13.50;;;;;;;;;;5388313;26;19992;-81
2024/04/12 02:23:05;;;;;;;17.50;13.38;;;;;;;;;;5388350;26;20003;-81
2024/04/12 02:25:35;;;;;;;16.83;12.73;;;;;;;;;;5388598;26;19988;-81
2024/04/12 02:28:07;;;;;;;18.15;13.25;;;;;;;;;;5387076;26;20046;-81
2024/04/12 02:30:33;;;;;;;;;;;;;;;;;;5389661;26;19999;-81
2024/04/12 02:33:00;;;;;;;20.52;13.73;;;;;;;;;;5391323;26;19922;-80
2024/04/12 02:35:27;;;;;;;17.33;12.70;;;;;;;;;;5391677;26;20007;-80
2024/04/12 02:37:53;;;;;;;16.20;12.23;;;;;;;;;;5391438;26;19991;-80
2024/04/12 02:40:19;;;;;;;19.23;12.73;;;;;;;;;;5391436;26;19996;-80
2024/04/12 02:42:45;;;;;;;17.33;12.88;;;;;;;;;;5391475;26;19992;-80
2024/04/12 02:45:27;;;;;;;19.23;12.88;;;;;;;;;;5391334;26;20270;-80
2024/04/12 02:47:53;;;;;;;20.15;12.88;;;;;;;;;;5389856;26;20000;-81
2024/04/12 02:50:21;;;;;;;18.33;12.60;;;;;;;;;;5390261;26;20261;-80
2024/04/12 02:52:47;;;;;;;15.90;12.45;;;;;;;;;;5391768;26;20000;-80
2024/04/12 02:55:13;;;;;;;18.95;12.88;;;;;;;;;;5391168;26;20004;-80
2024/04/12 02:57:41;;;;;;;17.88;13.18;;;;;;;;;;5391554;26;19988;-80
2024/04/12 03:00:21;;;;;;;18.50;13.82;;;;;;;;;;5391689;26;20061;-81
2024/04/12 03:02:48;;;;;;;20.60;12.70;;;;;;;;;;5389404;26;20008;-81
2024/04/12 03:05:14;;;;;;;15.95;12.30;;;;;;;;;;5389770;26;20053;-81
2024/04/12 03:07:41;;;;;;;18.08;13.00;;;;;;;;;;5390456;26;20028;-80
2024/04/12 03:10:08;;;;;;;16.63;12.63;;;;;;;;;;5389328;26;20006;-82
2024/04/12 03:12:36;;;;;;;16.42;13.10;;;;;;;;;;5390668;26;19996;-80
2024/04/12 03:15:04;;;;;;;22.30;13.20;;;;;;;;;;5389686;26;19992;-80
2024/04/12 03:17:32;;;;;;;16.17;12.98;;;;;;;;;;5391170;26;20004;-81
2024/04/12 03:19:58;;;;;;;17.30;13.07;;;;;;;;;;5390946;26;19988;-80
2024/04/12 03:22:24;;;;;;;18.70;13.90;;;;;;;;;;5389735;26;19997;-81
2024/04/12 03:24:51;;;;;;;17.02;12.57;;;;;;;;;;5390983;26;20011;-81
2024/04/12 03:27:17;;;;;;;21.17;12.85;;;;;;;;;;5389638;26;19996;-81
2024/04/12 03:29:43;;;;;;;20.70;13.02;;;;;;;;;;5390898;26;20000;-81
2024/04/12 03:32:12;;;;;;;29.45;13.88;;;;;;;;;;5389675;26;20003;-81
2024/04/12 03:34:38;;;;;;;17.60;12.85;;;;;;;;;;5390633;26;20028;-81
2024/04/12 03:37:23;;;;;;;25.50;13.77;;;;;;;;;;5390511;26;19996;-81
2024/04/12 03:40:00;;;;;;;17.98;13.13;;;;;;;;;;5390588;26;20376;-84
2024/04/12 03:42:28;;;;;;;19.17;13.32;;;;;;;;;;5390084;26;19998;-81
2024/04/12 03:44:58;;;;;;;32.40;16.23;;;;;;;;;;5390461;26;20032;-81
2024/04/12 03:47:50;;;;;;;25.40;17.02;;;;;;;;;;5390864;26;19992;-80
2024/04/12 03:50:16;;;;;;;26.38;16.33;;;;;;;;;;5389347;26;20013;-80
2024/04/12 03:52:48;;;;;;;23.48;14.43;;;;;;;;;;5390855;26;20008;-80
2024/04/12 03:55:14;;;;;;;23.33;14.27;;;;;;;;;;5390597;26;20004;-80
2024/04/12 03:57:44;;;;;;;48.72;25.60;;;;;;;;;;5390460;26;20032;-80
2024/04/12 04:00:11;;;;;;;28.50;15.23;;;;;;;;;;5389119;26;20004;-80
2024/04/12 04:02:37;;;;;;;29.45;16.77;;;;;;;;;;5389262;26;20007;-80
2024/04/12 04:05:14;;;;;;;35.30;17.95;;;;;;;;;;5390905;26;20058;-81
2024/04/12 04:07:41;;;;;;;27.83;18.83;;;;;;;;;;5391008;26;19988;-80
2024/04/12 04:10:13;;;;;;;25.58;15.80;;;;;;;;;;5388576;26;20007;-80
2024/04/12 04:12:44;;;;;;;32.92;15.45;;;;;;;;;;5389236;26;20034;-80
2024/04/12 04:15:11;;;;;;;19.75;13.98;;;;;;;;;;5388878;26;20008;-80
2024/04/12 04:17:53;;;;;;;19.83;14.18;;;;;;;;;;5389117;26;20289;-80
2024/04/12 04:20:20;;;;;;;20.75;13.35;;;;;;;;;;5390490;26;20000;-81
2024/04/12 04:22:49;;;;;;;19.80;11.93;;;;;;;;;;5389925;26;20242;-80
2024/04/12 04:25:19;;;;;;;19.10;12.93;;;;;;;;;;5390054;26;19992;-81
2024/04/12 04:27:45;;;;;;;20.85;13.15;;;;;;;;;;5390457;26;20004;-81
2024/04/12 04:30:17;;;;;;;20.48;12.88;;;;;;;;;;5390104;26;19992;-81
2024/04/12 04:32:46;;;;;;;16.95;12.55;;;;;;;;;;5390164;26;20000;-80
2024/04/12 04:35:13;;;;;;;19.60;12.38;;;;;;;;;;5389944;26;20000;-81
2024/04/12 04:37:39;;;;;;;20.15;13.80;;;;;;;;;;5389906;26;20252;-81
2024/04/12 04:40:16;;;;;;;20.15;13.68;;;;;;;;;;5389625;26;20003;-80
2024/04/12 04:42:45;;;;;;;15.85;11.90;;;;;;;;;;5388834;26;20261;-81
2024/04/12 04:45:17;;;;;;;23.40;13.20;;;;;;;;;;5389833;26;20003;-80
2024/04/12 04:47:44;;;;;;;22.85;12.98;;;;;;;;;;5390075;26;19992;-81
2024/04/12 04:50:12;;;;;;;18.23;12.10;;;;;;;;;;5388447;26;20004;-80
2024/04/12 04:52:39;;;;;;;18.80;12.23;;;;;;;;;;5389870;26;20045;-81
2024/04/12 04:55:11;;;;;;;22.42;11.90;;;;;;;;;;5387606;26;20000;-81
2024/04/12 04:57:43;;;;;;;21.15;11.73;;;;;;;;;;5390005;26;19988;-80
2024/04/12 05:00:10;;;;;;;16.42;11.82;;;;;;;;;;5388347;26;19996;-81
2024/04/12 05:02:36;;;;;;;18.75;12.77;;;;;;;;;;5389351;26;19992;-81
2024/04/12 05:05:05;;;;;;;27.35;16.48;;;;;;;;;;5388089;26;20007;-81
2024/04/12 05:07:34;;;;;;;27.15;18.40;;;;;;;;;;5388302;26;19995;-81
2024/04/12 05:10:14;;;;;;;16.15;13.23;;;;;;;;;;5387122;26;20007;-81
2024/04/12 05:12:42;;;;;;;17.98;12.45;;;;;;;;;;5390118;26;19999;-81
2024/04/12 05:15:31;;;;;;;18.95;12.93;;;;;;;;;;5387269;26;19996;-81
2024/04/12 05:18:03;;;;;;;24.63;12.57;;;;;;;;;;5389801;26;20004;-80
2024/04/12 05:20:38;;;;;;;20.58;13.10;;;;;;;;;;5387966;26;20358;-80
2024/04/12 05:23:20;;;;;;;19.98;14.57;;;;;;;;;;5389684;26;20028;-80
2024/04/12 05:25:47;;;;;;;;;;;;;;;;;;5388533;26;19999;-80
2024/04/12 05:28:13;;;;;;;24.25;13.10;;;;;;;;;;5389058;26;20196;-80
2024/04/12 05:31:11;;;;;;;14.77;11.98;;;;;;;;;;5388946;26;20029;-81
2024/04/12 05:33:42;;;;;;;19.35;12.20;;;;;;;;;;5388706;26;20253;-80
2024/04/12 05:36:09;;;;;;;18.47;11.83;;;;;;;;;;5387790;26;20011;-80
2024/04/12 05:38:36;;;;;;;20.65;11.70;;;;;;;;;;5389076;26;19999;-81
2024/04/12 05:41:04;;;;;;;21.90;11.90;;;;;;;;;;5388034;26;19996;-81
2024/04/12 05:43:31;;;;;;;21.77;11.93;;;;;;;;;;5388753;26;19992;-80
2024/04/12 05:46:00;;;;;;;19.88;12.57;;;;;;;;;;5388752;26;20004;-80
2024/04/12 05:48:27;;;;;;;16.95;12.07;;;;;;;;;;5389154;26;20004;-80
2024/04/12 05:50:57;;;;;;;14.82;12.60;;;;;;;;;;5388119;26;20003;-81
2024/04/12 05:53:25;;;;;;;16.98;11.50;;;;;;;;;;5388329;26;19996;-81
2024/04/12 05:56:20;;;;;;;18.73;12.27;;;;;;;;;;5388196;26;19997;-80
2024/04/12 05:58:43;;;;;;;18.65;11.02;;;;;;;;;;5354360;26;19992;-80
2024/04/12 06:01:09;;;;;;;20.90;12.45;;;;;;;;;;5352477;26;19997;-80
2024/04/12 06:03:42;;;;;;;20.27;13.63;;;;;;;;;;5353891;26;20036;-80
2024/04/12 06:06:08;;;;;;;20.23;14.23;;;;;;;;;;5353172;26;20050;-80
2024/04/12 06:08:37;;;;;;;22.02;14.43;;;;;;;;;;5382130;26;20051;-80
2024/04/12 06:11:03;;;;;;;20.38;14.10;;;;;;;;;;5353343;26;20047;-81
2024/04/12 06:13:29;;;;;;;20.67;15.60;;;;;;;;;;5372230;26;20036;-79
2024/04/12 06:15:55;;;;;;;23.25;15.02;;;;;;;;;;5388268;26;20029;-79
2024/04/12 06:18:22;;;;;;;20.98;13.38;;;;;;;;;;5388322;26;20405;-79
2024/04/12 06:20:48;;;;;;;19.20;12.13;;;;;;;;;;5388549;26;20004;-79
2024/04/12 06:23:19;;;;;;;24.52;12.93;;;;;;;;;;5388194;26;20050;-80
2024/04/12 06:25:49;;;;;;;16.48;11.63;;;;;;;;;;5388755;26;19988;-79
2024/04/12 06:28:15;;;;;;;22.10;12.52;;;;;;;;;;5387136;26;19992;-80
2024/04/12 06:30:43;;;;;;;26.55;13.75;;;;;;;;;;5388101;26;19999;-81
2024/04/12 06:33:12;;;;;;;17.33;12.70;;;;;;;;;;5384894;26;19997;-80
2024/04/12 06:35:40;;;;;;;20.25;11.93;;;;;;;;;;5388264;26;20028;-80
2024/04/12 06:38:09;;;;;;;19.60;11.95;;;;;;;;;;5388168;26;20004;-80
2024/04/12 06:40:37;;;;;;;23.67;13.40;;;;;;;;;;5387862;26;19988;-79
2024/04/12 06:43:06;;;;;;;16.73;11.45;;;;;;;;;;5386283;26;20058;-79
2024/04/12 06:45:41;;;;;;;19.90;12.05;;;;;;;;;;5386285;26;19993;-79
2024/04/12 06:48:10;;;;;;;15.02;11.45;;;;;;;;;;5388173;26;19997;-79
2024/04/12 06:50:39;;;;;;;18.40;11.75;;;;;;;;;;5388256;26;19988;-79
2024/04/12 06:53:08;;;;;;;15.10;11.60;;;;;;;;;;5387982;26;19996;-79
2024/04/12 06:55:45;;;;;;;23.27;12.05;;;;;;;;;;5387302;26;20097;-79
2024/04/12 06:58:18;;;;;;;17.77;11.43;;;;;;;;;;5387857;26;19992;-79
2024/04/12 07:00:46;;;;;;;30.83;11.90;;;;;;;;;;5387670;26;20211;-79
2024/04/12 07:03:15;;;;;;;17.15;10.73;;;;;;;;;;5385736;26;20000;-78
2024/04/12 07:05:47;;;;;;;14.13;9.98;;;;;;;;;;5387433;26;20007;-79
2024/04/12 07:08:16;;;;;;;15.45;10.73;;;;;;;;;;5387895;26;20005;-78
2024/04/12 07:10:48;;;;;;;15.38;10.55;;;;;;;;;;5386671;26;20004;-79
2024/04/12 07:13:15;;;;;;;19.40;10.88;;;;;;;;;;5386949;26;20031;-79
2024/04/12 07:15:41;;;;;;;15.55;10.02;;;;;;;;;;5386245;26;20042;-79
2024/04/12 07:18:11;;;;;;;16.52;10.18;;;;;;;;;;5389361;26;20003;-79
2024/04/12 07:20:40;;;;;;;24.35;10.88;;;;;;;;;;5391267;26;19992;-79
2024/04/12 07:23:08;;;;;;;17.92;9.93;;;;;;;;;;5390525;26;20004;-79
2024/04/12 07:25:34;;;;;;;15.52;10.15;;;;;;;;;;5390613;26;20028;-78
2024/04/12 07:28:01;;;;;;;23.98;10.65;;;;;;;;;;5390854;26;20413;-79
2024/04/12 07:30:27;;;;;;;18.23;9.45;;;;;;;;;;5390784;26;20365;-79
2024/04/12 07:32:53;;;;;;;16.40;10.00;;;;;;;;;;5390756;26;20032;-79
2024/04/12 07:35:24;;;;;;;14.57;9.63;;;;;;;;;;5390781;26;20050;-79
2024/04/12 07:37:54;;;;;;;18.95;10.38;;;;;;;;;;5390951;26;19996;-79
2024/04/12 07:40:24;;;;;;;19.80;10.45;;;;;;;;;;5390574;26;20000;-79
2024/04/12 07:42:52;;;;;;;18.48;10.20;;;;;;;;;;5389539;26;20229;-78
2024/04/12 07:45:22;;;;;;;23.95;10.05;;;;;;;;;;5390745;26;20050;-78
2024/04/12 07:50:34;;;;;;;21.58;10.63;;;;;;;;;;5390407;26;20251;-79
2024/04/12 07:53:10;;;;;;;19.73;10.10;;;;;;;;;;5389342;26;19992;-79
2024/04/12 07:55:41;;;;;;;16.65;10.15;;;;;;;;;;5390568;26;19992;-79
2024/04/12 07:58:12;;;;;;;16.20;9.02;;;;;;;;;;5390430;26;19993;-79
2024/04/12 08:00:47;;;;;;;15.20;9.18;;;;;;;;;;5390617;26;19988;-79
2024/04/12 08:03:16;;;;;;;18.58;9.10;;;;;;;;;;5390324;26;20003;-79
2024/04/12 08:06:03;;;;;;;16.50;8.77;;;;;;;;;;5390348;26;20016;-79
2024/04/12 08:08:43;;;;;;;15.88;8.77;;;;;;;;;;5390777;26;20003;-79
2024/04/12 08:11:12;;;;;;;15.38;9.20;;;;;;;;;;5389867;26;20003;-79
2024/04/12 08:13:44;;;;;;;16.70;9.45;;;;;;;;;;5390299;26;20000;-79
2024/04/12 08:16:14;;;;;;;;;;;;;;;;;;5390724;26;20293;-79
2024/04/12 08:18:43;;;;;;;17.63;8.95;;;;;;;;;;5390587;26;19928;-79
2024/04/12 08:21:12;;;;;;;15.85;8.63;;;;;;;;;;5390597;26;19996;-79
2024/04/12 08:23:43;;;;;;;13.35;8.02;;;;;;;;;;5390273;26;20030;-78
2024/04/12 08:26:10;;;;;;;17.17;8.77;;;;;;;;;;5390050;26;20000;-79
2024/04/12 08:28:40;;;;;;;13.77;8.55;;;;;;;;;;5389757;26;19988;-79
2024/04/12 08:31:06;;;;;;;16.00;8.15;;;;;;;;;;5390300;26;19988;-79
2024/04/12 08:33:32;;;;;;;16.40;8.63;;;;;;;;;;5390242;26;19996;-79
2024/04/12 08:36:01;;;;;;;16.23;8.25;;;;;;;;;;5388802;26;20345;-79
2024/04/12 08:38:27;;;;;;;18.38;8.70;;;;;;;;;;5388841;26;20036;-79
2024/04/12 08:41:02;;;;;;;13.90;8.80;;;;;;;;;;5389708;26;20045;-79
2024/04/12 08:43:41;;;;;;;18.55;8.90;;;;;;;;;;5388638;26;20000;-79
2024/04/12 08:46:16;;;;;;;13.18;8.48;;;;;;;;;;5389906;26;19996;-79
2024/04/12 08:48:43;;;;;;;12.32;8.68;;;;;;;;;;5390119;26;19992;-79
2024/04/12 08:51:13;;;;;;;16.83;9.20;;;;;;;;;;5388593;26;19996;-79
2024/04/12 08:53:44;;;;;;;14.00;8.70;;;;;;;;;;5389622;26;20342;-79
2024/04/12 08:56:17;;;;;;;22.60;7.38;;;;;;;;;;5389740;26;20260;-79
2024/04/12 08:58:48;;;;;;;16.23;8.60;;;;;;;;;;5389808;26;20353;-79
2024/04/12 09:01:17;;;;;;;11.73;7.90;;;;;;;;;;5389792;26;19992;-79
2024/04/12 09:03:46;;;;;;;12.10;7.75;;;;;;;;;;5389812;26;20350;-79
2024/04/12 09:06:22;;;;;;;16.13;7.82;;;;;;;;;;5389795;26;20000;-78
2024/04/12 09:08:51;;;;;;;16.15;7.55;;;;;;;;;;5388254;26;19999;-79
2024/04/12 09:11:19;;;;;;;14.23;7.70;;;;;;;;;;5389303;26;19996;-79
2024/04/12 09:13:49;;;;;;;13.75;7.38;;;;;;;;;;5388762;26;20221;-79
2024/04/12 09:16:19;;;;;;;16.08;7.13;;;;;;;;;;5389870;26;19988;-79
2024/04/12 09:18:46;;;;;;;12.05;7.00;;;;;;;;;;5389052;26;20011;-79
2024/04/12 09:21:24;;;;;;;13.55;6.35;;;;;;;;;;5389224;26;19994;-79
2024/04/12 09:23:50;;;;;;;13.85;7.07;;;;;;;;;;5389523;26;19996;-79
2024/04/12 09:26:24;;;;;;;13.93;6.57;;;;;;;;;;5389453;26;19988;-79
2024/04/12 09:29:09;;;;;;;12.20;6.85;;;;;;;;;;5388083;26;20235;-79
2024/04/12 09:34:39;;;;;;;15.48;7.55;;;;;;;;;;5389498;26;20360;-79
2024/04/12 09:37:29;;;;;;;14.18;6.22;;;;;;;;;;5389600;26;20020;-79
2024/04/12 09:42:47;;;;;;;12.07;6.60;;;;;;;;;;5388886;26;19988;-79
2024/04/12 09:45:20;;;;;;;11.50;6.85;;;;;;;;;;5389186;26;20403;-79
2024/04/12 10:37:44;;;;;;;15.02;5.20;;;;;;;;;;5386157;26;20004;-82
2024/04/12 10:40:11;;;;;;;12.43;5.07;;;;;;;;;;5387374;26;20007;-88
2024/04/12 10:42:46;;;;;;;14.05;5.32;;;;;;;;;;5388359;26;19996;-81
2024/04/12 10:45:15;;;;;;;9.65;5.28;;;;;;;;;;5386892;26;20000;-82
2024/04/12 10:47:45;;;;;;;9.43;5.72;;;;;;;;;;5387652;26;20024;-82
2024/04/12 10:50:13;;;;;;;13.68;5.55;;;;;;;;;;5387702;26;19990;-81
2024/04/12 10:52:39;;;;;;;17.20;6.15;;;;;;;;;;5390547;26;20006;-81
2024/04/12 10:55:09;;;;;;;10.52;5.00;;;;;;;;;;5390210;26;20346;-81
2024/04/12 10:57:44;;;;;;;17.13;6.15;;;;;;;;;;5390931;26;20053;-82
2024/04/12 11:00:14;;;;;;;12.85;5.35;;;;;;;;;;5391469;26;19988;-81
2024/04/12 11:02:44;;;;;;;13.77;5.83;;;;;;;;;;5390910;26;19996;-82
